Time;durP1;ratioP1;P1;durP2;ratioP2;P2;SDS_P1;SDS_P2;PMS_P1;PMS_P2;Temp;Humidity;BMP_temperature;BMP_pressure;BME280_temperature;BME280_humidity;BME280_pressure;Samples;Min_cycle;Max_cycle;Signal;HPM_P1;HPM_P2
2022/07/07 00:00:43;;;;;;;10.13;3.10;;;15.60;85.50;;;;;;4993007;28;20531;-76
2022/07/07 00:03:11;;;;;;;8.50;2.92;;;15.60;85.60;;;;;;4994958;28;20396;-77
2022/07/07 00:05:39;;;;;;;6.30;2.78;;;15.50;85.60;;;;;;4996494;28;20531;-76
2022/07/07 00:08:07;;;;;;;10.15;3.40;;;15.60;85.70;;;;;;4996839;28;20393;-77
2022/07/07 00:10:35;;;;;;;7.78;3.88;;;15.50;86.00;;;;;;4997038;28;20050;-76
2022/07/07 00:13:03;;;;;;;14.25;4.40;;;15.40;86.20;;;;;;4996768;28;20061;-77
2022/07/07 00:15:31;;;;;;;10.93;4.80;;;15.30;86.50;;;;;;5006594;28;20488;-76
2022/07/07 00:17:58;;;;;;;14.75;5.30;;;15.30;86.70;;;;;;5007645;28;20046;-77
2022/07/07 00:20:26;;;;;;;11.90;5.72;;;15.30;86.90;;;;;;4996438;28;20062;-76
2022/07/07 00:22:54;;;;;;;9.20;6.00;;;15.20;87.00;;;;;;4995820;28;20491;-77
2022/07/07 00:25:21;;;;;;;6.97;6.05;;;15.20;87.10;;;;;;4997121;28;20497;-77
2022/07/07 00:27:49;;;;;;;10.98;8.05;;;15.10;87.20;;;;;;4997169;28;20054;-76
2022/07/07 00:30:17;;;;;;;14.98;7.05;;;15.10;87.40;;;;;;4996342;28;20057;-77
2022/07/07 00:32:45;;;;;;;10.55;7.38;;;15.10;87.70;;;;;;4979804;28;20062;-78
2022/07/07 00:35:13;;;;;;;12.68;8.20;;;15.00;87.90;;;;;;4995966;28;20046;-77
2022/07/07 00:37:40;;;;;;;8.30;5.80;;;15.00;88.00;;;;;;4994272;28;20057;-77
2022/07/07 00:40:09;;;;;;;12.38;7.68;;;15.00;88.20;;;;;;4994776;28;20058;-77
2022/07/07 00:42:37;;;;;;;11.88;4.60;;;14.90;88.30;;;;;;4996131;28;20046;-77
2022/07/07 00:45:06;;;;;;;7.75;4.30;;;14.90;88.40;;;;;;4994798;28;20050;-76
2022/07/07 00:47:33;;;;;;;6.72;3.47;;;14.80;88.50;;;;;;4995837;28;20043;-76
2022/07/07 00:50:01;;;;;;;3.42;2.30;;;14.80;88.50;;;;;;4995264;28;20054;-76
2022/07/07 00:52:29;;;;;;;8.95;2.30;;;14.80;88.60;;;;;;4994379;28;20057;-75
2022/07/07 00:55:00;;;;;;;5.82;2.67;;;14.60;88.50;;;;;;4994475;28;20050;-75
2022/07/07 00:57:28;;;;;;;7.68;2.60;;;14.50;88.60;;;;;;4994893;28;20428;-75
2022/07/07 00:59:59;;;;;;;8.98;2.63;;;14.40;88.70;;;;;;4994365;28;20050;-76
2022/07/07 01:02:30;;;;;;;7.72;2.75;;;14.30;88.90;;;;;;4995058;28;20062;-76
2022/07/07 01:05:00;;;;;;;8.52;2.78;;;14.30;89.00;;;;;;4994136;28;20046;-75
2022/07/07 01:07:28;;;;;;;7.03;2.88;;;14.20;89.00;;;;;;4977966;28;20496;-75
2022/07/07 01:09:57;;;;;;;11.52;3.13;;;14.10;89.00;;;;;;4995650;28;20054;-75
2022/07/07 01:12:26;;;;;;;9.77;2.90;;;14.10;89.10;;;;;;4993934;28;20605;-76
2022/07/07 01:14:53;;;;;;;11.63;3.30;;;14.00;89.20;;;;;;4994378;28;20053;-76
2022/07/07 01:17:21;;;;;;;9.32;2.65;;;14.00;89.20;;;;;;4995637;28;20058;-76
2022/07/07 01:19:49;;;;;;;11.48;3.40;;;14.00;89.20;;;;;;4995242;28;20050;-76
2022/07/07 01:22:17;;;;;;;12.35;2.85;;;13.90;89.20;;;;;;4995325;28;20042;-76
2022/07/07 01:24:45;;;;;;;18.55;3.08;;;13.90;89.30;;;;;;4995156;28;20054;-76
2022/07/07 01:27:15;;;;;;;13.70;3.20;;;13.90;89.30;;;;;;4994914;28;20251;-76
2022/07/07 01:29:51;;;;;;;16.70;3.05;;;13.80;89.30;;;;;;4995143;28;20530;-76
2022/07/07 01:32:19;;;;;;;13.15;2.90;;;13.80;89.30;;;;;;4993944;28;20058;-76
2022/07/07 01:34:48;;;;;;;20.98;3.60;;;13.80;89.30;;;;;;4997168;28;20054;-76
2022/07/07 01:37:17;;;;;;;10.23;2.95;;;13.80;89.40;;;;;;4994906;28;20053;-76
2022/07/07 01:39:45;;;;;;;10.60;2.83;;;13.80;89.30;;;;;;4995571;28;20042;-76
2022/07/07 01:42:13;;;;;;;9.13;2.50;;;13.80;89.30;;;;;;4995320;28;20050;-75
2022/07/07 01:44:42;;;;;;;9.45;2.53;;;13.80;89.40;;;;;;4993279;28;20073;-76
2022/07/07 01:47:11;;;;;;;11.18;2.35;;;13.80;89.40;;;;;;4994896;28;20401;-76
2022/07/07 01:49:40;;;;;;;9.98;2.45;;;13.70;89.30;;;;;;4994663;28;20058;-77
2022/07/07 01:52:07;;;;;;;13.05;2.33;;;13.80;89.30;;;;;;4995015;28;20050;-76
2022/07/07 01:54:36;;;;;;;13.07;2.63;;;13.70;89.10;;;;;;4994569;28;20076;-76
2022/07/07 01:57:06;;;;;;;10.30;2.03;;;13.70;89.00;;;;;;4994549;28;20050;-76
2022/07/07 01:59:34;;;;;;;10.93;2.38;;;13.70;88.90;;;;;;4995535;28;20538;-76
2022/07/07 02:02:02;;;;;;;10.10;2.53;;;13.70;88.80;;;;;;4996823;28;20411;-77
2022/07/07 02:04:30;;;;;;;9.70;2.03;;;13.70;88.80;;;;;;5006318;28;20043;-76
2022/07/07 02:06:58;;;;;;;5.97;2.00;;;13.70;88.70;;;;;;4996337;28;20076;-75
2022/07/07 02:09:26;;;;;;;7.72;2.10;;;13.60;88.70;;;;;;4994743;28;20043;-77
2022/07/07 02:11:54;;;;;;;10.80;2.17;;;13.60;88.60;;;;;;4994200;28;20061;-75
2022/07/07 02:14:22;;;;;;;6.78;1.85;;;13.60;88.60;;;;;;4994343;28;20050;-75
2022/07/07 02:16:50;;;;;;;9.80;1.90;;;13.60;88.50;;;;;;4994734;28;20050;-75
2022/07/07 02:19:18;;;;;;;4.95;1.55;;;13.60;88.50;;;;;;4994647;28;20038;-78
2022/07/07 02:21:45;;;;;;;4.72;1.15;;;13.60;88.40;;;;;;4993130;28;20054;-76
2022/07/07 02:24:13;;;;;;;7.72;1.77;;;13.60;88.20;;;;;;4994087;28;20066;-76
2022/07/07 02:26:41;;;;;;;8.50;1.88;;;13.50;88.10;;;;;;4993727;28;20057;-76
2022/07/07 02:29:09;;;;;;;6.95;1.90;;;13.50;87.90;;;;;;4994083;28;20038;-77
2022/07/07 02:31:37;;;;;;;6.93;1.40;;;13.50;87.80;;;;;;4993709;28;20648;-76
2022/07/07 02:34:05;;;;;;;6.80;1.77;;;13.50;87.80;;;;;;4993986;28;20042;-76
2022/07/07 02:36:33;;;;;;;4.68;1.45;;;13.50;87.70;;;;;;4994053;28;20396;-76
2022/07/07 02:39:01;;;;;;;7.15;1.63;;;13.50;87.70;;;;;;4993697;28;20050;-76
2022/07/07 02:41:29;;;;;;;3.90;1.42;;;13.50;87.50;;;;;;4998860;28;20061;-76
2022/07/07 02:43:56;;;;;;;11.63;1.50;;;13.50;87.50;;;;;;4998941;28;20061;-76
2022/07/07 02:46:28;;;;;;;7.82;1.63;;;13.50;87.50;;;;;;4994749;28;20050;-76
2022/07/07 02:48:56;;;;;;;10.57;1.45;;;13.40;87.40;;;;;;4993588;28;20054;-76
2022/07/07 02:51:24;;;;;;;6.65;1.65;;;13.40;87.40;;;;;;4991933;28;20085;-76
2022/07/07 02:53:52;;;;;;;7.22;1.50;;;13.40;87.40;;;;;;4992878;28;20054;-76
2022/07/07 02:56:20;;;;;;;7.57;1.70;;;13.40;87.40;;;;;;4993638;28;20511;-76
2022/07/07 02:58:47;;;;;;;6.85;1.65;;;13.40;87.40;;;;;;4991957;28;20050;-76
2022/07/07 03:01:15;;;;;;;7.90;1.58;;;13.40;87.40;;;;;;4994125;28;20042;-77
2022/07/07 03:03:43;;;;;;;8.82;1.50;;;13.40;87.40;;;;;;4993353;28;20400;-76
2022/07/07 03:06:10;;;;;;;5.45;1.63;;;13.40;87.50;;;;;;4993617;28;20062;-77
2022/07/07 03:08:38;;;;;;;11.45;1.83;;;13.40;87.50;;;;;;4993349;28;20057;-74
2022/07/07 03:11:06;;;;;;;6.45;1.65;;;13.30;87.50;;;;;;4992378;28;20479;-76
2022/07/07 03:13:33;;;;;;;12.75;1.85;;;13.30;87.50;;;;;;4993683;28;20046;-76
2022/07/07 03:16:01;;;;;;;8.02;1.73;;;13.30;87.50;;;;;;4993357;28;20046;-76
2022/07/07 03:18:29;;;;;;;8.88;1.65;;;13.30;87.60;;;;;;4992968;28;20055;-76
2022/07/07 03:20:57;;;;;;;8.63;1.90;;;13.30;87.60;;;;;;4991913;28;20077;-76
2022/07/07 03:23:25;;;;;;;8.07;1.85;;;13.30;87.70;;;;;;4992096;28;20411;-76
2022/07/07 03:25:53;;;;;;;5.40;1.70;;;13.30;87.70;;;;;;4993216;28;20407;-75
2022/07/07 03:28:20;;;;;;;12.32;2.00;;;13.30;87.80;;;;;;4993066;28;20492;-76
2022/07/07 03:30:48;;;;;;;14.02;2.30;;;13.30;87.80;;;;;;4992612;28;20058;-76
2022/07/07 03:33:16;;;;;;;9.45;1.80;;;13.30;87.80;;;;;;4992601;28;20059;-76
2022/07/07 03:35:44;;;;;;;9.75;1.92;;;13.30;87.90;;;;;;4992861;28;20426;-76
2022/07/07 03:38:12;;;;;;;10.88;1.67;;;13.30;87.90;;;;;;4993267;28;20050;-76
2022/07/07 03:40:39;;;;;;;9.70;2.00;;;13.30;87.90;;;;;;4996928;28;20050;-76
2022/07/07 03:43:07;;;;;;;9.55;1.83;;;13.20;87.90;;;;;;4996764;28;20518;-76
2022/07/07 03:45:35;;;;;;;4.72;1.80;;;13.20;88.00;;;;;;4996861;28;20436;-76
2022/07/07 03:48:03;;;;;;;6.32;1.63;;;13.20;88.00;;;;;;4996233;28;20399;-76
2022/07/07 03:50:31;;;;;;;10.57;2.03;;;13.20;88.00;;;;;;4996756;28;20065;-76
2022/07/07 03:53:00;;;;;;;9.02;2.05;;;13.20;88.00;;;;;;4996424;28;20054;-76
2022/07/07 03:55:28;;;;;;;7.30;1.80;;;13.20;88.00;;;;;;4996590;28;20054;-76
2022/07/07 03:58:00;;;;;;;5.95;1.52;;;13.20;88.00;;;;;;4995505;28;20051;-76
2022/07/07 04:00:28;;;;;;;8.35;1.98;;;13.20;87.90;;;;;;4996140;28;20059;-76
2022/07/07 04:02:56;;;;;;;8.32;1.50;;;13.20;87.90;;;;;;4996649;28;20046;-77
2022/07/07 04:05:23;;;;;;;9.73;1.92;;;13.20;87.80;;;;;;4996607;28;20404;-77
2022/07/07 04:07:51;;;;;;;10.27;1.88;;;13.30;87.80;;;;;;4996585;28;20046;-77
2022/07/07 04:10:19;;;;;;;5.10;1.30;;;13.30;87.70;;;;;;4996377;28;20038;-76
2022/07/07 04:12:46;;;;;;;7.38;1.92;;;13.30;87.60;;;;;;4995269;28;20057;-76
2022/07/07 04:15:14;;;;;;;5.40;1.70;;;13.30;87.50;;;;;;4996553;28;20050;-77
2022/07/07 04:17:42;;;;;;;3.33;1.30;;;13.30;87.50;;;;;;4995091;28;20061;-77
2022/07/07 04:20:10;;;;;;;7.18;1.50;;;13.30;87.40;;;;;;4995715;28;20057;-76
2022/07/07 04:22:38;;;;;;;7.00;1.45;;;13.30;87.30;;;;;;4996057;28;20054;-77
2022/07/07 04:25:07;;;;;;;6.57;1.33;;;13.30;87.30;;;;;;4996122;28;20042;-77
2022/07/07 04:27:35;;;;;;;4.88;1.40;;;13.30;87.20;;;;;;4995995;28;20083;-76
2022/07/07 04:30:03;;;;;;;5.38;1.50;;;13.30;87.20;;;;;;4994392;28;20404;-77
2022/07/07 04:32:32;;;;;;;6.63;1.17;;;13.30;87.10;;;;;;4996240;28;20046;-76
2022/07/07 04:34:59;;;;;;;5.38;1.40;;;13.30;87.10;;;;;;4996185;28;20050;-77
2022/07/07 04:37:27;;;;;;;5.15;1.00;;;13.30;87.10;;;;;;4995912;28;20051;-76
2022/07/07 04:39:55;;;;;;;15.52;1.67;;;13.30;87.10;;;;;;4994382;28;20099;-76
2022/07/07 04:42:23;;;;;;;9.05;1.27;;;13.30;87.10;;;;;;4995307;28;20065;-77
2022/07/07 04:44:50;;;;;;;4.75;1.30;;;13.30;87.10;;;;;;4994687;28;20042;-77
2022/07/07 04:47:18;;;;;;;8.10;1.75;;;13.30;87.10;;;;;;4995803;28;20054;-76
2022/07/07 04:49:46;;;;;;;6.30;1.40;;;13.30;87.10;;;;;;4996940;28;20050;-76
2022/07/07 04:52:14;;;;;;;12.40;1.90;;;13.30;87.20;;;;;;4997583;28;20053;-77
2022/07/07 04:54:41;;;;;;;8.80;1.58;;;13.30;87.20;;;;;;4998763;28;20642;-76
2022/07/07 04:57:09;;;;;;;8.95;2.00;;;13.30;87.20;;;;;;4979043;28;20404;-76
2022/07/07 04:59:37;;;;;;;7.50;1.58;;;13.30;87.20;;;;;;4996232;28;20038;-76
2022/07/07 05:02:05;;;;;;;6.70;1.73;;;13.30;87.20;;;;;;4995439;28;20507;-76
2022/07/07 05:04:32;;;;;;;5.70;2.00;;;13.30;87.20;;;;;;4995892;28;20403;-76
2022/07/07 05:07:02;;;;;;;8.43;2.00;;;13.30;87.20;;;;;;4995976;28;20073;-76
2022/07/07 05:09:30;;;;;;;10.52;2.70;;;13.30;87.20;;;;;;4995667;28;20050;-77
2022/07/07 05:12:01;;;;;;;5.85;2.20;;;13.30;87.20;;;;;;4994716;28;20046;-76
2022/07/07 05:14:30;;;;;;;7.47;2.13;;;13.30;87.20;;;;;;4995903;28;20042;-76
2022/07/07 05:16:59;;;;;;;6.72;1.75;;;13.40;87.20;;;;;;4993912;28;20046;-76
2022/07/07 05:19:27;;;;;;;13.25;1.60;;;13.40;87.20;;;;;;4995515;28;20046;-76
2022/07/07 05:21:55;;;;;;;10.68;2.22;;;13.40;87.20;;;;;;4994259;28;20492;-76
2022/07/07 05:24:24;;;;;;;10.85;1.80;;;13.40;87.20;;;;;;4994726;28;20061;-75
2022/07/07 05:26:51;;;;;;;9.88;2.00;;;13.40;87.30;;;;;;4993656;28;20054;-76
2022/07/07 05:29:19;;;;;;;11.93;2.00;;;13.40;87.30;;;;;;4995643;28;20042;-76
2022/07/07 05:31:47;;;;;;;10.30;2.20;;;13.40;87.40;;;;;;4994981;28;20050;-76
2022/07/07 05:34:14;;;;;;;8.90;1.85;;;13.40;87.40;;;;;;4995372;28;20054;-76
2022/07/07 05:36:42;;;;;;;10.60;2.00;;;13.40;87.40;;;;;;4995027;28;20066;-76
2022/07/07 05:39:13;;;;;;;9.77;2.00;;;13.50;87.50;;;;;;4993282;28;20387;-76
2022/07/07 05:41:41;;;;;;;15.00;2.42;;;13.50;87.50;;;;;;4994651;28;20050;-76
2022/07/07 05:44:09;;;;;;;10.60;2.40;;;13.50;87.50;;;;;;4993453;28;20054;-76
2022/07/07 05:46:37;;;;;;;11.23;2.00;;;13.50;87.50;;;;;;4994697;28;20061;-76
2022/07/07 05:49:05;;;;;;;9.35;2.33;;;13.50;87.60;;;;;;4993152;28;20069;-76
2022/07/07 05:51:33;;;;;;;8.18;2.00;;;13.50;87.60;;;;;;4994121;28;20054;-76
2022/07/07 05:54:00;;;;;;;11.70;2.30;;;13.50;87.70;;;;;;4994506;28;20057;-76
2022/07/07 05:56:28;;;;;;;14.23;2.42;;;13.60;87.70;;;;;;4994233;28;20384;-76
2022/07/07 05:58:56;;;;;;;18.05;2.85;;;13.50;87.70;;;;;;4994419;28;20073;-75
2022/07/07 06:01:23;;;;;;;14.77;2.90;;;13.60;87.70;;;;;;4992753;28;20038;-75
2022/07/07 06:03:51;;;;;;;10.13;2.65;;;13.60;87.70;;;;;;4994438;28;20050;-75
2022/07/07 06:06:19;;;;;;;12.65;2.40;;;13.70;87.70;;;;;;4994439;28;20054;-76
2022/07/07 06:08:47;;;;;;;14.65;3.10;;;13.60;87.70;;;;;;4993753;28;20065;-75
2022/07/07 06:11:15;;;;;;;12.55;2.92;;;13.70;87.70;;;;;;4992491;28;20050;-76
2022/07/07 06:13:48;;;;;;;14.23;2.70;;;13.70;87.70;;;;;;4994159;28;20528;-76
2022/07/07 06:16:15;;;;;;;16.30;2.67;;;13.70;87.70;;;;;;4994270;28;20043;-76
2022/07/07 06:18:43;;;;;;;14.57;2.50;;;13.70;87.80;;;;;;4993464;28;20527;-76
2022/07/07 06:21:11;;;;;;;10.07;2.60;;;13.70;87.80;;;;;;4995024;28;20049;-76
2022/07/07 06:23:38;;;;;;;14.60;2.28;;;13.70;87.90;;;;;;4993357;28;20042;-76
2022/07/07 06:26:06;;;;;;;17.17;2.63;;;13.70;87.90;;;;;;4993946;28;20484;-75
2022/07/07 06:28:34;;;;;;;11.88;2.63;;;13.80;87.90;;;;;;4993963;28;20053;-75
2022/07/07 06:31:01;;;;;;;12.38;2.50;;;13.80;87.90;;;;;;4993496;28;20050;-76
2022/07/07 06:33:29;;;;;;;14.43;2.67;;;13.80;87.90;;;;;;4993337;28;20488;-76
2022/07/07 06:35:57;;;;;;;17.23;2.50;;;13.80;87.90;;;;;;4993885;28;20054;-76
2022/07/07 06:38:25;;;;;;;12.50;2.25;;;13.90;87.80;;;;;;4993669;28;20492;-76
2022/07/07 06:40:58;;;;;;;12.85;2.55;;;13.90;87.80;;;;;;4992316;28;20042;-75
2022/07/07 06:43:26;;;;;;;16.38;2.83;;;13.90;87.80;;;;;;4993666;28;20046;-76
2022/07/07 06:45:54;;;;;;;16.55;2.58;;;14.00;87.80;;;;;;4992591;28;20050;-76
2022/07/07 06:48:22;;;;;;;15.55;2.35;;;14.00;87.70;;;;;;4993273;28;20061;-76
2022/07/07 06:50:49;;;;;;;11.15;2.30;;;14.00;87.70;;;;;;4993609;28;20042;-76
2022/07/07 06:53:17;;;;;;;10.77;2.50;;;14.10;87.70;;;;;;4993267;28;20058;-76
2022/07/07 06:55:45;;;;;;;14.40;2.50;;;14.10;87.60;;;;;;4993414;28;20035;-76
2022/07/07 06:58:12;;;;;;;16.30;2.22;;;14.10;87.60;;;;;;4991683;28;20054;-75
2022/07/07 07:00:43;;;;;;;14.10;2.45;;;14.20;87.60;;;;;;4993583;28;20395;-76
2022/07/07 07:03:10;;;;;;;12.95;2.38;;;14.20;87.60;;;;;;4993409;28;20054;-76
2022/07/07 07:05:38;;;;;;;10.50;2.55;;;14.30;87.50;;;;;;4993114;28;20054;-77
2022/07/07 07:08:06;;;;;;;14.25;2.50;;;14.30;87.40;;;;;;4993536;28;20145;-76
2022/07/07 07:10:34;;;;;;;10.63;2.30;;;14.30;87.30;;;;;;4993656;28;20061;-76
2022/07/07 07:13:02;;;;;;;10.52;2.22;;;14.30;87.20;;;;;;4992057;28;20495;-75
2022/07/07 07:15:29;;;;;;;4.30;1.88;;;14.40;87.10;;;;;;4977957;28;20042;-76
2022/07/07 07:17:57;;;;;;;15.95;1.70;;;14.50;87.00;;;;;;5004966;28;20066;-76
2022/07/07 07:20:25;;;;;;;8.18;2.10;;;14.50;86.80;;;;;;4993732;28;20528;-76
2022/07/07 07:22:53;;;;;;;13.80;2.28;;;14.60;86.80;;;;;;4992176;28;20058;-76
2022/07/07 07:25:20;;;;;;;8.18;2.42;;;14.60;86.80;;;;;;4993385;28;20054;-76
2022/07/07 07:27:49;;;;;;;16.83;2.00;;;14.60;86.60;;;;;;4993702;28;20054;-76
2022/07/07 07:30:16;;;;;;;11.18;2.97;;;14.60;86.50;;;;;;4993040;28;20050;-76
2022/07/07 07:32:44;;;;;;;13.20;1.92;;;14.60;86.40;;;;;;4993164;28;20054;-76
2022/07/07 07:35:12;;;;;;;14.63;2.25;;;14.70;86.40;;;;;;4993614;28;20484;-76
2022/07/07 07:37:40;;;;;;;10.73;2.05;;;14.70;86.30;;;;;;4993302;28;20503;-76
2022/07/07 07:40:11;;;;;;;6.05;1.67;;;14.80;86.20;;;;;;4993546;28;20050;-76
2022/07/07 07:42:39;;;;;;;7.47;1.80;;;14.80;86.00;;;;;;4992728;28;20043;-76
2022/07/07 07:45:11;;;;;;;11.20;1.88;;;14.80;85.80;;;;;;4993329;28;20403;-76
2022/07/07 07:47:46;;;;;;;10.70;2.10;;;14.90;85.60;;;;;;4993572;28;20488;-76
2022/07/07 07:50:16;;;;;;;8.82;1.88;;;15.00;85.60;;;;;;4993515;28;20050;-76
2022/07/07 07:52:45;;;;;;;12.98;2.42;;;15.00;85.50;;;;;;4992864;28;20057;-75
2022/07/07 07:55:15;;;;;;;8.40;1.35;;;15.10;85.40;;;;;;4992963;28;20504;-76
2022/07/07 07:57:43;;;;;;;15.80;2.85;;;15.20;85.10;;;;;;4992160;28;20054;-76
2022/07/07 08:00:13;;;;;;;16.08;2.25;;;15.20;84.80;;;;;;4992768;28;20483;-76
2022/07/07 08:02:41;;;;;;;17.02;2.22;;;15.30;84.90;;;;;;4992834;28;20504;-75
2022/07/07 08:05:12;;;;;;;7.15;1.67;;;15.30;84.90;;;;;;4992711;28;20415;-76
2022/07/07 08:07:41;;;;;;;8.45;1.60;;;15.30;84.80;;;;;;4992825;28;20057;-76
2022/07/07 08:10:13;;;;;;;6.70;1.88;;;15.40;84.30;;;;;;4992783;28;20043;-76
2022/07/07 08:12:43;;;;;;;4.85;1.20;;;15.50;84.20;;;;;;4992888;28;20058;-77
2022/07/07 08:15:12;;;;;;;8.43;1.50;;;15.60;83.80;;;;;;4992982;28;20047;-75
2022/07/07 08:17:40;;;;;;;6.03;1.40;;;15.50;83.50;;;;;;4991550;28;20061;-76
2022/07/07 08:20:09;;;;;;;8.85;1.95;;;15.50;83.40;;;;;;4992940;28;20051;-76
2022/07/07 08:22:37;;;;;;;11.05;1.42;;;15.50;83.30;;;;;;4991604;28;20046;-76
2022/07/07 08:25:07;;;;;;;9.40;1.10;;;15.60;83.30;;;;;;4993932;28;20495;-75
2022/07/07 08:27:35;;;;;;;7.43;1.92;;;15.60;83.30;;;;;;4995287;28;20407;-75
2022/07/07 08:30:05;;;;;;;8.48;1.50;;;15.70;83.30;;;;;;4996695;28;20051;-75
2022/07/07 08:32:33;;;;;;;6.20;1.40;;;15.80;83.10;;;;;;4996442;28;20049;-76
2022/07/07 08:35:00;;;;;;;5.32;1.10;;;15.90;82.80;;;;;;4995065;28;20492;-76
2022/07/07 08:37:28;;;;;;;7.70;1.50;;;16.00;82.40;;;;;;4995731;28;20054;-75
2022/07/07 08:39:56;;;;;;;8.18;1.70;;;16.10;82.40;;;;;;4995690;28;20047;-76
2022/07/07 08:42:24;;;;;;;8.52;1.80;;;16.20;82.30;;;;;;4995819;28;20050;-76
2022/07/07 08:44:52;;;;;;;8.40;1.75;;;16.30;81.90;;;;;;4995630;28;20077;-76
2022/07/07 08:47:20;;;;;;;9.55;1.80;;;16.40;81.50;;;;;;4996076;28;20063;-76
2022/07/07 08:49:48;;;;;;;9.52;1.90;;;16.50;81.20;;;;;;4995984;28;20050;-76
2022/07/07 08:52:16;;;;;;;8.43;1.30;;;16.60;80.30;;;;;;4996130;28;20053;-76
2022/07/07 08:54:43;;;;;;;5.93;1.73;;;16.70;79.70;;;;;;4994608;28;20054;-76
2022/07/07 08:57:11;;;;;;;4.20;0.98;;;16.70;79.90;;;;;;4995790;28;20484;-76
2022/07/07 08:59:39;;;;;;;5.78;1.35;;;16.80;79.70;;;;;;4995535;28;20423;-76
2022/07/07 09:02:09;;;;;;;8.15;1.50;;;16.80;79.60;;;;;;4995795;28;20054;-76
2022/07/07 09:04:37;;;;;;;10.52;1.80;;;16.80;79.60;;;;;;4995646;28;20045;-76
2022/07/07 09:07:06;;;;;;;6.65;1.60;;;16.80;79.50;;;;;;4995385;28;20046;-77
2022/07/07 09:09:36;;;;;;;5.43;1.40;;;16.80;79.30;;;;;;4995838;28;20073;-76
2022/07/07 09:12:06;;;;;;;8.32;1.60;;;16.70;79.20;;;;;;5009461;28;20621;-77
2022/07/07 09:14:39;;;;;;;4.97;1.38;;;16.70;79.00;;;;;;5014188;28;20069;-74
2022/07/07 09:17:30;;;;;;;6.80;1.55;;;16.60;79.20;;;;;;5015138;28;20054;-74
2022/07/07 09:20:07;;;;;;;5.53;1.50;;;16.70;79.30;;;;;;5014957;28;20057;-74
2022/07/07 09:22:44;;;;;;;6.25;1.33;;;16.70;79.30;;;;;;5014183;28;20050;-74
2022/07/07 09:25:12;;;;;;;4.50;1.40;;;16.70;79.20;;;;;;5014776;28;20042;-74
2022/07/07 09:27:56;;;;;;;7.70;1.60;;;16.70;79.20;;;;;;5013814;28;20061;-74
2022/07/07 09:30:46;;;;;;;4.28;1.50;;;16.70;79.10;;;;;;5014806;28;20042;-74
2022/07/07 09:33:19;;;;;;;5.47;1.15;;;16.70;79.00;;;;;;5015420;28;20419;-74
2022/07/07 09:38:37;;;;;;;7.40;1.42;;;16.90;78.00;;;;;;5018972;28;20053;-74
2022/07/07 09:41:16;;;;;;;4.15;1.40;;;17.10;78.10;;;;;;5015438;28;20046;-75
2022/07/07 09:43:45;;;;;;;6.72;1.30;;;17.30;76.80;;;;;;5014759;28;20065;-75
2022/07/07 09:46:23;;;;;;;3.72;1.05;;;17.40;76.60;;;;;;5014475;28;20037;-75
2022/07/07 09:48:52;;;;;;;4.00;1.00;;;17.40;76.00;;;;;;5014051;28;20050;-74
2022/07/07 09:51:24;;;;;;;4.38;1.20;;;17.40;75.50;;;;;;5014421;28;20498;-74
2022/07/07 09:54:14;;;;;;;3.67;1.05;;;17.40;75.10;;;;;;5014391;28;20419;-74
2022/07/07 09:56:47;;;;;;;4.40;1.42;;;17.30;75.20;;;;;;5013415;28;20058;-79
2022/07/07 09:59:20;;;;;;;3.67;1.02;;;17.50;75.40;;;;;;5013365;28;20075;-73
2022/07/07 10:01:49;;;;;;;4.68;1.23;;;17.60;74.90;;;;;;5013765;28;20050;-74
2022/07/07 10:04:19;;;;;;;5.25;1.13;;;17.60;74.00;;;;;;5014240;28;20050;-75
2022/07/07 10:06:47;;;;;;;3.50;1.15;;;17.50;74.40;;;;;;5014071;28;20050;-78
2022/07/07 10:09:20;;;;;;;3.00;0.90;;;17.60;74.50;;;;;;5012914;28;20057;-75
2022/07/07 10:11:52;;;;;;;6.72;1.38;;;17.70;74.10;;;;;;5014352;28;20049;-83
2022/07/07 10:14:25;;;;;;;3.10;0.90;;;17.80;74.00;;;;;;4996616;28;20556;-74
2022/07/07 10:16:54;;;;;;;3.50;1.00;;;18.00;74.00;;;;;;5013186;28;20038;-74
2022/07/07 10:19:25;;;;;;;4.15;1.00;;;18.30;73.20;;;;;;5013582;28;20160;-74
2022/07/07 10:21:57;;;;;;;3.20;0.95;;;18.50;72.60;;;;;;5013641;28;20474;-74
2022/07/07 10:24:29;;;;;;;3.65;0.93;;;18.50;71.50;;;;;;5013273;28;20546;-74
2022/07/07 10:26:59;;;;;;;6.03;1.33;;;18.50;71.40;;;;;;5013727;28;20054;-74
2022/07/07 10:29:59;;;;;;;4.82;1.55;;;18.50;71.10;;;;;;5012017;28;20067;-74
2022/07/07 10:32:52;;;;;;;8.55;1.50;;;18.40;71.60;;;;;;4993255;28;20057;-74
2022/07/07 10:35:22;;;;;;;7.05;1.73;;;18.40;72.00;;;;;;4993633;28;20051;-74
2022/07/07 10:37:52;;;;;;;6.47;2.00;;;18.40;72.20;;;;;;4993444;28;20053;-75
2022/07/07 10:40:25;;;;;;;4.95;1.70;;;18.60;72.50;;;;;;4993740;28;20049;-74
2022/07/07 10:43:29;;;;;;;6.57;1.60;;;18.80;72.00;;;;;;4993900;28;20492;-75
2022/07/07 10:45:58;;;;;;;5.85;1.60;;;18.90;71.20;;;;;;4991816;28;20047;-75
2022/07/07 10:48:46;;;;;;;8.20;1.60;;;19.10;70.60;;;;;;4993773;28;20061;-75
2022/07/07 10:51:18;;;;;;;5.38;1.52;;;19.30;69.90;;;;;;4993601;28;20056;-75
2022/07/07 10:53:55;;;;;;;7.28;2.22;;;19.50;68.90;;;;;;4992578;28;20042;-75
2022/07/07 10:56:23;;;;;;;11.68;2.40;;;19.70;69.00;;;;;;5012398;28;20130;-75
2022/07/07 10:58:59;;;;;;;10.82;2.30;;;19.80;68.70;;;;;;5012498;28;20062;-75
2022/07/07 11:01:29;;;;;;;5.65;1.90;;;19.90;68.50;;;;;;4996401;28;20053;-75
2022/07/07 11:03:58;;;;;;;5.70;1.80;;;20.00;67.50;;;;;;5012713;28;20403;-75
2022/07/07 11:06:25;;;;;;;7.95;1.98;;;20.00;67.10;;;;;;5013186;28;20050;-75
2022/07/07 11:09:01;;;;;;;6.68;1.85;;;20.00;66.80;;;;;;5011853;28;20053;-75
2022/07/07 11:11:30;;;;;;;8.65;2.00;;;19.90;67.10;;;;;;4995225;28;20038;-74
2022/07/07 11:14:09;;;;;;;6.35;1.90;;;19.90;67.00;;;;;;5012680;28;20049;-75
2022/07/07 11:16:39;;;;;;;7.18;1.92;;;19.80;67.20;;;;;;5012915;28;20046;-75
2022/07/07 11:19:09;;;;;;;4.28;1.70;;;19.80;67.00;;;;;;5012915;28;20486;-75
2022/07/07 11:21:43;;;;;;;7.82;1.90;;;19.70;67.30;;;;;;5013402;28;20048;-74
2022/07/07 11:24:20;;;;;;;23.17;2.67;;;19.80;67.60;;;;;;5012372;28;20064;-75
2022/07/07 11:27:02;;;;;;;7.05;2.05;;;19.80;67.30;;;;;;5012520;28;20068;-75
2022/07/07 11:29:31;;;;;;;4.78;1.65;;;19.90;67.00;;;;;;5011818;28;20057;-74
2022/07/07 11:32:09;;;;;;;6.13;1.65;;;20.00;66.70;;;;;;5011586;28;20054;-75
2022/07/07 11:34:49;;;;;;;4.80;1.63;;;20.10;66.70;;;;;;5012643;28;20049;-75
2022/07/07 11:37:26;;;;;;;6.30;1.58;;;20.10;66.10;;;;;;5012466;28;20046;-75
2022/07/07 11:39:55;;;;;;;6.35;1.40;;;20.10;66.40;;;;;;5012058;28;20057;-75
2022/07/07 11:42:25;;;;;;;4.20;1.63;;;20.00;66.30;;;;;;5012481;28;20057;-75
2022/07/07 11:44:53;;;;;;;12.13;2.20;;;20.10;66.10;;;;;;5012578;28;20049;-75
2022/07/07 11:47:22;;;;;;;20.65;2.35;;;19.90;66.20;;;;;;5012370;28;20062;-75
2022/07/07 11:49:54;;;;;;;4.57;1.67;;;19.90;66.30;;;;;;5012390;28;20069;-74
2022/07/07 11:52:24;;;;;;;8.07;1.70;;;19.90;66.20;;;;;;5013096;28;20061;-74
2022/07/07 11:54:52;;;;;;;10.70;2.28;;;19.90;65.80;;;;;;5020617;28;20403;-75
2022/07/07 11:57:33;;;;;;;14.48;1.90;;;20.00;65.90;;;;;;5013474;28;20380;-74
2022/07/07 12:00:29;;;;;;;7.43;2.00;;;20.00;65.30;;;;;;5015005;28;20046;-75
2022/07/07 12:03:00;;;;;;;5.85;1.70;;;20.20;65.00;;;;;;4986756;28;20534;-75
2022/07/07 12:05:32;;;;;;;7.07;2.28;;;20.30;64.40;;;;;;4995087;28;20403;-78
2022/07/07 12:08:06;;;;;;;8.02;2.10;;;20.10;64.10;;;;;;5002525;28;20049;-77
2022/07/07 12:10:49;;;;;;;4.88;1.73;;;19.80;64.50;;;;;;5016520;28;20050;-77
2022/07/07 12:13:19;;;;;;;6.13;1.63;;;19.70;65.50;;;;;;5015286;28;20416;-77
2022/07/07 12:15:50;;;;;;;5.13;1.80;;;19.80;65.40;;;;;;5015797;28;20050;-77
2022/07/07 12:18:37;;;;;;;5.35;1.70;;;20.00;65.00;;;;;;5016098;28;20049;-77
2022/07/07 12:21:07;;;;;;;6.70;2.55;;;20.00;64.60;;;;;;5003047;28;20042;-77
2022/07/07 12:23:37;;;;;;;6.72;2.30;;;19.80;65.00;;;;;;4996352;28;20050;-78
2022/07/07 12:26:15;;;;;;;9.40;2.80;;;20.00;65.30;;;;;;4996342;28;20035;-77
2022/07/07 12:28:43;;;;;;;7.30;3.78;;;20.30;64.30;;;;;;4996033;28;20058;-78
2022/07/07 12:31:19;;;;;;;11.95;4.25;;;20.30;63.60;;;;;;4996837;28;20046;-76
2022/07/07 12:33:49;;;;;;;6.00;3.70;;;20.20;63.80;;;;;;5012170;28;20046;-78
2022/07/07 12:36:24;;;;;;;14.48;4.15;;;20.10;63.90;;;;;;5015600;28;20037;-77
2022/07/07 12:38:59;;;;;;;19.10;3.75;;;20.10;64.50;;;;;;5015879;28;20058;-78
2022/07/07 12:41:32;;;;;;;20.75;4.38;;;20.40;63.70;;;;;;5015792;28;20053;-77
2022/07/07 12:44:16;;;;;;;;;;;21.00;63.20;;;;;;5015210;28;20049;-78
2022/07/07 12:47:04;;;;;;;4.15;1.98;;;21.80;61.80;;;;;;5016761;28;19932;-78
2022/07/07 12:49:32;;;;;;;6.57;2.35;;;22.20;59.80;;;;;;5018307;28;20046;-77
2022/07/07 12:52:00;;;;;;;6.25;2.50;;;22.20;58.90;;;;;;5021015;28;20050;-77
2022/07/07 12:54:30;;;;;;;7.60;2.83;;;22.00;58.20;;;;;;5021494;28;20392;-77
2022/07/07 12:57:03;;;;;;;14.02;2.85;;;21.50;58.10;;;;;;5016467;28;20061;-78
2022/07/07 12:59:38;;;;;;;7.72;2.38;;;21.00;59.60;;;;;;5016036;28;20086;-72